Terminal Aerodrome Forecast
Issued by NWS Twin Cities, MN

Home | Current Version | Previous Version | Graphics & Text | Print | Product List | Glossary On
Versions: 1 2 3 4 5 6 7 8 9 10 11 12 13 14 15 16 17 18 19 20 21 22 23 24 25 26
000
FTUS43 KMPX 281408 AAA
TAFMSP
TAF AMD
KMSP 281408Z 2814/2918 07006KT P6SM OVC008
     FM281700 08006KT P6SM -SHRA SCT009 OVC015
     FM281800 09006KT P6SM -SHRA SCT015 BKN025 OVC040
     FM282000 16005KT 5SM -SHRA SCT025 BKN040
      TEMPO 2821/2824 4SM -TSRA BKN025CB OVC040
     FM290200 28005KT P6SM VCSH SCT025 BKN070
     FM290900 30007KT P6SM SCT008 BKN030=

USA.gov is the U.S. government's official web portal to all federal, state and local government web resources and services.